sensor_id;sensor_type;location;lat;lon;timestamp;pressure;altitude;pressure_sealevel;temperature;humidity
32083;BME280;18597;48.328;7.932;2023-12-14T00:00:21;98573.88;;;7.03;100.00
32083;BME280;18597;48.328;7.932;2023-12-14T00:02:47;98580.75;;;7.05;100.00
32083;BME280;18597;48.328;7.932;2023-12-14T00:05:12;98582.75;;;7.13;100.00
32083;BME280;18597;48.328;7.932;2023-12-14T00:07:38;98582.59;;;7.14;100.00
32083;BME280;18597;48.328;7.932;2023-12-14T00:10:05;98583.56;;;7.13;100.00
32083;BME280;18597;48.328;7.932;2023-12-14T00:12:31;98590.00;;;7.11;100.00
32083;BME280;18597;48.328;7.932;2023-12-14T00:14:57;98584.94;;;7.08;100.00
32083;BME280;18597;48.328;7.932;2023-12-14T00:17:22;98583.56;;;7.04;100.00
32083;BME280;18597;48.328;7.932;2023-12-14T00:19:48;98584.78;;;7.00;100.00
32083;BME280;18597;48.328;7.932;2023-12-14T00:22:14;98591.47;;;6.94;100.00
32083;BME280;18597;48.328;7.932;2023-12-14T00:24:40;98590.91;;;6.90;100.00
32083;BME280;18597;48.328;7.932;2023-12-14T00:27:06;98598.59;;;6.93;100.00
32083;BME280;18597;48.328;7.932;2023-12-14T00:29:31;98598.72;;;6.92;100.00
32083;BME280;18597;48.328;7.932;2023-12-14T00:31:57;98603.06;;;6.93;100.00
32083;BME280;18597;48.328;7.932;2023-12-14T00:34:23;98600.41;;;6.93;100.00
32083;BME280;18597;48.328;7.932;2023-12-14T00:36:49;98616.63;;;6.90;100.00
32083;BME280;18597;48.328;7.932;2023-12-14T00:39:14;98607.19;;;7.07;100.00
32083;BME280;18597;48.328;7.932;2023-12-14T00:41:40;98609.00;;;7.06;100.00
32083;BME280;18597;48.328;7.932;2023-12-14T00:44:06;98608.50;;;6.91;100.00
32083;BME280;18597;48.328;7.932;2023-12-14T00:46:32;98621.09;;;6.89;100.00
32083;BME280;18597;48.328;7.932;2023-12-14T00:48:58;98621.91;;;6.90;100.00
32083;BME280;18597;48.328;7.932;2023-12-14T00:51:23;98622.75;;;6.90;100.00
32083;BME280;18597;48.328;7.932;2023-12-14T00:53:49;98626.13;;;6.92;100.00
32083;BME280;18597;48.328;7.932;2023-12-14T00:56:15;98635.38;;;6.98;100.00
32083;BME280;18597;48.328;7.932;2023-12-14T00:58:41;98643.91;;;7.02;100.00
32083;BME280;18597;48.328;7.932;2023-12-14T01:01:07;98637.16;;;7.28;100.00
32083;BME280;18597;48.328;7.932;2023-12-14T01:03:32;98638.97;;;7.18;100.00
32083;BME280;18597;48.328;7.932;2023-12-14T01:05:58;98645.38;;;7.15;100.00
32083;BME280;18597;48.328;7.932;2023-12-14T01:08:24;98651.94;;;7.11;100.00
32083;BME280;18597;48.328;7.932;2023-12-14T01:10:50;98658.47;;;7.07;100.00
32083;BME280;18597;48.328;7.932;2023-12-14T01:13:15;98662.56;;;7.11;100.00
32083;BME280;18597;48.328;7.932;2023-12-14T01:15:41;98657.44;;;7.29;100.00
32083;BME280;18597;48.328;7.932;2023-12-14T01:18:07;98661.88;;;7.19;100.00
32083;BME280;18597;48.328;7.932;2023-12-14T01:20:33;98669.94;;;7.08;100.00
32083;BME280;18597;48.328;7.932;2023-12-14T01:22:58;98676.91;;;7.09;100.00
32083;BME280;18597;48.328;7.932;2023-12-14T01:25:24;98677.19;;;7.06;100.00
32083;BME280;18597;48.328;7.932;2023-12-14T01:27:50;98681.53;;;7.07;100.00
32083;BME280;18597;48.328;7.932;2023-12-14T01:30:16;98688.81;;;7.05;100.00
32083;BME280;18597;48.328;7.932;2023-12-14T01:32:42;98691.59;;;7.03;100.00
32083;BME280;18597;48.328;7.932;2023-12-14T01:35:08;98689.88;;;7.02;100.00
32083;BME280;18597;48.328;7.932;2023-12-14T01:37:34;98698.94;;;7.20;100.00
32083;BME280;18597;48.328;7.932;2023-12-14T01:39:59;98705.75;;;7.13;100.00
32083;BME280;18597;48.328;7.932;2023-12-14T01:42:25;98704.59;;;7.06;100.00
32083;BME280;18597;48.328;7.932;2023-12-14T01:44:51;98705.56;;;7.05;100.00
32083;BME280;18597;48.328;7.932;2023-12-14T01:47:17;98707.38;;;7.05;100.00
32083;BME280;18597;48.328;7.932;2023-12-14T01:49:43;98710.03;;;7.05;100.00
32083;BME280;18597;48.328;7.932;2023-12-14T01:52:09;98718.72;;;7.07;100.00
32083;BME280;18597;48.328;7.932;2023-12-14T01:54:34;98728.34;;;7.08;100.00
32083;BME280;18597;48.328;7.932;2023-12-14T01:57:00;98734.09;;;7.03;100.00
32083;BME280;18597;48.328;7.932;2023-12-14T01:59:26;98738.41;;;7.04;100.00
32083;BME280;18597;48.328;7.932;2023-12-14T02:01:54;98738.31;;;7.15;100.00
32083;BME280;18597;48.328;7.932;2023-12-14T02:04:23;98741.63;;;7.08;100.00
32083;BME280;18597;48.328;7.932;2023-12-14T02:06:49;98748.63;;;7.09;100.00
32083;BME280;18597;48.328;7.932;2023-12-14T02:09:15;98746.13;;;7.07;100.00
32083;BME280;18597;48.328;7.932;2023-12-14T02:11:41;98750.72;;;7.05;100.00
32083;BME280;18597;48.328;7.932;2023-12-14T02:14:09;98748.63;;;7.09;100.00
32083;BME280;18597;48.328;7.932;2023-12-14T02:16:37;98745.41;;;7.05;100.00
32083;BME280;18597;48.328;7.932;2023-12-14T02:19:05;98752.06;;;7.00;100.00
32083;BME280;18597;48.328;7.932;2023-12-14T02:21:31;98759.19;;;6.99;100.00
32083;BME280;18597;48.328;7.932;2023-12-14T02:23:57;98755.56;;;7.00;100.00
32083;BME280;18597;48.328;7.932;2023-12-14T02:26:23;98758.09;;;7.02;100.00
32083;BME280;18597;48.328;7.932;2023-12-14T02:28:48;98763.53;;;7.00;100.00
32083;BME280;18597;48.328;7.932;2023-12-14T02:31:15;98766.47;;;6.97;100.00
32083;BME280;18597;48.328;7.932;2023-12-14T02:33:40;98759.72;;;6.93;100.00
32083;BME280;18597;48.328;7.932;2023-12-14T02:36:07;98768.38;;;6.95;100.00
32083;BME280;18597;48.328;7.932;2023-12-14T02:38:33;98767.81;;;7.12;100.00
32083;BME280;18597;48.328;7.932;2023-12-14T02:40:59;98773.03;;;7.03;100.00
32083;BME280;18597;48.328;7.932;2023-12-14T02:43:25;98783.56;;;7.04;100.00
32083;BME280;18597;48.328;7.932;2023-12-14T02:45:51;98777.72;;;7.10;100.00
32083;BME280;18597;48.328;7.932;2023-12-14T02:48:16;98784.53;;;7.03;100.00
32083;BME280;18597;48.328;7.932;2023-12-14T02:50:42;98785.94;;;7.07;100.00
32083;BME280;18597;48.328;7.932;2023-12-14T02:53:08;98787.94;;;7.15;100.00
32083;BME280;18597;48.328;7.932;2023-12-14T02:55:34;98790.69;;;7.04;100.00
32083;BME280;18597;48.328;7.932;2023-12-14T02:58:00;98794.28;;;7.03;100.00
32083;BME280;18597;48.328;7.932;2023-12-14T03:00:25;98794.56;;;7.00;100.00
32083;BME280;18597;48.328;7.932;2023-12-14T03:02:52;98802.53;;;7.00;100.00
32083;BME280;18597;48.328;7.932;2023-12-14T03:05:17;98808.94;;;6.97;100.00
32083;BME280;18597;48.328;7.932;2023-12-14T03:07:43;98804.09;;;7.23;100.00
32083;BME280;18597;48.328;7.932;2023-12-14T03:10:09;98805.19;;;7.20;100.00
32083;BME280;18597;48.328;7.932;2023-12-14T03:12:35;98807.06;;;7.09;100.00
32083;BME280;18597;48.328;7.932;2023-12-14T03:15:01;98805.88;;;7.02;100.00
32083;BME280;18597;48.328;7.932;2023-12-14T03:17:27;98808.03;;;7.08;100.00
32083;BME280;18597;48.328;7.932;2023-12-14T03:19:53;98819.44;;;6.99;100.00
32083;BME280;18597;48.328;7.932;2023-12-14T03:22:18;98814.13;;;6.99;100.00
32083;BME280;18597;48.328;7.932;2023-12-14T03:24:45;98816.13;;;7.06;100.00
32083;BME280;18597;48.328;7.932;2023-12-14T03:27:11;98828.81;;;7.03;100.00
32083;BME280;18597;48.328;7.932;2023-12-14T03:29:37;98828.41;;;7.18;100.00
32083;BME280;18597;48.328;7.932;2023-12-14T03:32:03;98831.47;;;7.03;100.00
32083;BME280;18597;48.328;7.932;2023-12-14T03:34:29;98841.38;;;7.01;100.00
32083;BME280;18597;48.328;7.932;2023-12-14T03:36:55;98837.13;;;7.09;100.00
32083;BME280;18597;48.328;7.932;2023-12-14T03:39:20;98841.25;;;7.02;100.00
32083;BME280;18597;48.328;7.932;2023-12-14T03:41:46;98844.50;;;7.06;100.00
32083;BME280;18597;48.328;7.932;2023-12-14T03:44:12;98859.66;;;7.15;100.00
32083;BME280;18597;48.328;7.932;2023-12-14T03:46:38;98855.13;;;7.06;100.00
32083;BME280;18597;48.328;7.932;2023-12-14T03:49:04;98866.59;;;7.06;100.00
32083;BME280;18597;48.328;7.932;2023-12-14T03:51:30;98870.22;;;7.05;100.00
32083;BME280;18597;48.328;7.932;2023-12-14T03:53:56;98877.69;;;7.11;100.00
32083;BME280;18597;48.328;7.932;2023-12-14T03:56:21;98882.53;;;7.06;100.00
32083;BME280;18597;48.328;7.932;2023-12-14T03:58:48;98883.44;;;7.16;100.00
32083;BME280;18597;48.328;7.932;2023-12-14T04:01:18;98882.81;;;7.03;100.00
32083;BME280;18597;48.328;7.932;2023-12-14T04:03:45;98891.72;;;7.02;100.00
32083;BME280;18597;48.328;7.932;2023-12-14T04:06:12;98902.09;;;7.05;100.00
32083;BME280;18597;48.328;7.932;2023-12-14T04:08:38;98903.97;;;7.14;100.00
32083;BME280;18597;48.328;7.932;2023-12-14T04:11:04;98906.06;;;7.11;100.00
32083;BME280;18597;48.328;7.932;2023-12-14T04:13:30;98907.97;;;7.09;100.00
32083;BME280;18597;48.328;7.932;2023-12-14T04:15:56;98914.28;;;7.08;100.00
32083;BME280;18597;48.328;7.932;2023-12-14T04:18:23;98919.34;;;7.11;100.00
32083;BME280;18597;48.328;7.932;2023-12-14T04:20:49;98929.00;;;7.12;100.00
32083;BME280;18597;48.328;7.932;2023-12-14T04:23:15;98930.41;;;7.16;100.00
32083;BME280;18597;48.328;7.932;2023-12-14T04:25:41;98928.03;;;7.13;100.00
32083;BME280;18597;48.328;7.932;2023-12-14T04:28:07;98933.22;;;7.14;100.00
32083;BME280;18597;48.328;7.932;2023-12-14T04:30:32;98938.25;;;7.17;100.00
32083;BME280;18597;48.328;7.932;2023-12-14T04:32:58;98933.34;;;7.13;100.00
32083;BME280;18597;48.328;7.932;2023-12-14T04:35:24;98937.06;;;7.10;100.00
32083;BME280;18597;48.328;7.932;2023-12-14T04:37:50;98937.06;;;7.10;100.00
32083;BME280;18597;48.328;7.932;2023-12-14T04:40:16;98940.06;;;7.17;100.00
32083;BME280;18597;48.328;7.932;2023-12-14T04:42:42;98948.03;;;7.17;100.00
32083;BME280;18597;48.328;7.932;2023-12-14T04:45:08;98948.56;;;7.11;100.00
32083;BME280;18597;48.328;7.932;2023-12-14T04:47:35;98958.56;;;7.07;100.00
32083;BME280;18597;48.328;7.932;2023-12-14T04:50:03;98953.97;;;7.09;100.00
32083;BME280;18597;48.328;7.932;2023-12-14T04:52:29;98964.50;;;7.11;100.00
32083;BME280;18597;48.328;7.932;2023-12-14T04:54:55;98964.72;;;7.08;100.00
32083;BME280;18597;48.328;7.932;2023-12-14T04:57:20;98977.78;;;7.11;100.00
32083;BME280;18597;48.328;7.932;2023-12-14T04:59:46;98983.09;;;7.11;100.00
32083;BME280;18597;48.328;7.932;2023-12-14T05:02:12;98976.31;;;7.18;100.00
32083;BME280;18597;48.328;7.932;2023-12-14T05:04:38;98991.91;;;7.11;100.00
32083;BME280;18597;48.328;7.932;2023-12-14T05:07:04;98997.78;;;7.15;100.00
32083;BME280;18597;48.328;7.932;2023-12-14T05:09:29;98998.50;;;7.17;100.00
32083;BME280;18597;48.328;7.932;2023-12-14T05:11:55;99004.09;;;7.14;100.00
32083;BME280;18597;48.328;7.932;2023-12-14T05:14:21;99010.84;;;7.07;100.00
32083;BME280;18597;48.328;7.932;2023-12-14T05:16:47;99023.88;;;7.10;100.00
32083;BME280;18597;48.328;7.932;2023-12-14T05:19:13;99025.94;;;7.06;100.00
32083;BME280;18597;48.328;7.932;2023-12-14T05:21:39;99024.13;;;7.07;100.00
32083;BME280;18597;48.328;7.932;2023-12-14T05:24:05;99033.06;;;7.06;100.00
32083;BME280;18597;48.328;7.932;2023-12-14T05:26:31;99035.88;;;7.04;100.00
32083;BME280;18597;48.328;7.932;2023-12-14T05:28:57;99035.47;;;7.09;100.00
32083;BME280;18597;48.328;7.932;2023-12-14T05:31:23;99045.63;;;7.15;100.00
32083;BME280;18597;48.328;7.932;2023-12-14T05:33:48;99051.06;;;7.13;100.00
32083;BME280;18597;48.328;7.932;2023-12-14T05:36:14;99047.56;;;7.13;100.00
32083;BME280;18597;48.328;7.932;2023-12-14T05:38:41;99058.53;;;7.19;100.00
32083;BME280;18597;48.328;7.932;2023-12-14T05:41:08;99058.66;;;7.18;100.00
32083;BME280;18597;48.328;7.932;2023-12-14T05:43:34;99065.19;;;7.14;100.00
32083;BME280;18597;48.328;7.932;2023-12-14T05:46:00;99075.09;;;7.12;100.00
32083;BME280;18597;48.328;7.932;2023-12-14T05:48:26;99088.38;;;7.12;100.00
32083;BME280;18597;48.328;7.932;2023-12-14T05:50:54;99086.31;;;7.04;100.00
32083;BME280;18597;48.328;7.932;2023-12-14T05:53:20;99090.91;;;7.13;100.00
32083;BME280;18597;48.328;7.932;2023-12-14T05:55:45;99097.91;;;7.14;100.00
32083;BME280;18597;48.328;7.932;2023-12-14T05:58:11;99106.13;;;7.11;100.00
32083;BME280;18597;48.328;7.932;2023-12-14T06:00:37;99099.97;;;7.11;100.00
32083;BME280;18597;48.328;7.932;2023-12-14T06:03:04;99102.84;;;7.08;100.00
32083;BME280;18597;48.328;7.932;2023-12-14T06:05:31;99108.66;;;7.13;100.00
32083;BME280;18597;48.328;7.932;2023-12-14T06:07:56;99110.69;;;7.09;100.00
32083;BME280;18597;48.328;7.932;2023-12-14T06:10:22;99112.88;;;7.15;100.00
32083;BME280;18597;48.328;7.932;2023-12-14T06:12:48;99115.66;;;7.14;100.00
32083;BME280;18597;48.328;7.932;2023-12-14T06:15:14;99126.28;;;7.14;100.00
32083;BME280;18597;48.328;7.932;2023-12-14T06:17:40;99127.25;;;7.13;100.00
32083;BME280;18597;48.328;7.932;2023-12-14T06:20:08;99140.13;;;7.17;100.00
32083;BME280;18597;48.328;7.932;2023-12-14T06:22:36;99136.78;;;7.15;100.00
32083;BME280;18597;48.328;7.932;2023-12-14T06:25:03;99142.94;;;7.16;100.00
32083;BME280;18597;48.328;7.932;2023-12-14T06:27:29;99149.09;;;7.16;100.00
32083;BME280;18597;48.328;7.932;2023-12-14T06:29:55;99158.75;;;7.17;100.00
32083;BME280;18597;48.328;7.932;2023-12-14T06:32:21;99163.47;;;7.14;100.00
32083;BME280;18597;48.328;7.932;2023-12-14T06:34:47;99165.88;;;7.06;100.00
32083;BME280;18597;48.328;7.932;2023-12-14T06:37:13;99172.03;;;7.06;100.00
32083;BME280;18597;48.328;7.932;2023-12-14T06:39:41;99173.00;;;7.05;100.00
32083;BME280;18597;48.328;7.932;2023-12-14T06:42:07;99181.56;;;7.09;100.00
32083;BME280;18597;48.328;7.932;2023-12-14T06:44:32;99190.28;;;7.11;100.00
32083;BME280;18597;48.328;7.932;2023-12-14T06:46:58;99187.63;;;7.11;100.00
32083;BME280;18597;48.328;7.932;2023-12-14T06:49:25;99195.47;;;7.12;100.00
32083;BME280;18597;48.328;7.932;2023-12-14T06:51:51;99190.38;;;7.09;100.00
32083;BME280;18597;48.328;7.932;2023-12-14T06:54:17;99204.41;;;7.11;100.00
32083;BME280;18597;48.328;7.932;2023-12-14T06:56:43;99218.41;;;7.13;100.00
32083;BME280;18597;48.328;7.932;2023-12-14T06:59:09;99212.25;;;7.13;100.00
32083;BME280;18597;48.328;7.932;2023-12-14T07:01:35;99224.81;;;7.11;100.00
32083;BME280;18597;48.328;7.932;2023-12-14T07:04:01;99224.44;;;7.15;100.00
32083;BME280;18597;48.328;7.932;2023-12-14T07:06:28;99220.34;;;7.11;100.00
32083;BME280;18597;48.328;7.932;2023-12-14T07:08:54;99230.13;;;7.11;100.00
32083;BME280;18597;48.328;7.932;2023-12-14T07:11:20;99239.88;;;7.10;100.00
32083;BME280;18597;48.328;7.932;2023-12-14T07:13:46;99235.06;;;7.15;100.00
32083;BME280;18597;48.328;7.932;2023-12-14T07:16:12;99235.91;;;7.16;100.00
32083;BME280;18597;48.328;7.932;2023-12-14T07:18:40;99243.66;;;7.19;100.00
32083;BME280;18597;48.328;7.932;2023-12-14T07:21:08;99244.38;;;7.21;100.00
32083;BME280;18597;48.328;7.932;2023-12-14T07:23:35;99247.75;;;7.23;100.00
32083;BME280;18597;48.328;7.932;2023-12-14T07:26:01;99255.84;;;7.21;100.00
32083;BME280;18597;48.328;7.932;2023-12-14T07:28:28;99252.22;;;7.22;100.00
32083;BME280;18597;48.328;7.932;2023-12-14T07:30:53;99261.28;;;7.20;100.00
32083;BME280;18597;48.328;7.932;2023-12-14T07:33:19;99262.50;;;7.27;100.00
32083;BME280;18597;48.328;7.932;2023-12-14T07:35:45;99272.16;;;7.28;100.00
32083;BME280;18597;48.328;7.932;2023-12-14T07:38:11;99269.63;;;7.27;100.00
32083;BME280;18597;48.328;7.932;2023-12-14T07:40:37;99270.94;;;7.32;100.00
32083;BME280;18597;48.328;7.932;2023-12-14T07:43:04;99274.56;;;7.31;100.00
32083;BME280;18597;48.328;7.932;2023-12-14T07:45:30;99281.81;;;7.18;100.00
32083;BME280;18597;48.328;7.932;2023-12-14T07:47:56;99272.97;;;7.17;100.00
32083;BME280;18597;48.328;7.932;2023-12-14T07:50:22;99290.25;;;7.23;100.00
32083;BME280;18597;48.328;7.932;2023-12-14T07:52:48;99286.88;;;7.21;100.00
32083;BME280;18597;48.328;7.932;2023-12-14T07:55:14;99296.88;;;7.17;100.00
32083;BME280;18597;48.328;7.932;2023-12-14T07:57:40;99298.94;;;7.14;100.00
32083;BME280;18597;48.328;7.932;2023-12-14T08:00:07;99304.75;;;7.19;100.00
32083;BME280;18597;48.328;7.932;2023-12-14T08:02:34;99314.78;;;7.27;100.00
32083;BME280;18597;48.328;7.932;2023-12-14T08:05:00;99312.72;;;7.19;100.00
32083;BME280;18597;48.328;7.932;2023-12-14T08:07:26;99328.44;;;7.22;100.00
32083;BME280;18597;48.328;7.932;2023-12-14T08:09:55;99333.34;;;7.15;100.00
32083;BME280;18597;48.328;7.932;2023-12-14T08:12:22;99343.78;;;7.18;100.00
32083;BME280;18597;48.328;7.932;2023-12-14T08:14:48;99341.84;;;7.20;100.00
32083;BME280;18597;48.328;7.932;2023-12-14T08:17:14;99345.34;;;7.21;100.00
32083;BME280;18597;48.328;7.932;2023-12-14T08:19:40;99353.06;;;7.24;100.00
32083;BME280;18597;48.328;7.932;2023-12-14T08:22:06;99355.72;;;7.24;100.00
32083;BME280;18597;48.328;7.932;2023-12-14T08:24:33;99360.69;;;7.29;100.00
32083;BME280;18597;48.328;7.932;2023-12-14T08:26:58;99369.03;;;7.35;100.00
32083;BME280;18597;48.328;7.932;2023-12-14T08:29:24;99373.19;;;7.50;100.00
32083;BME280;18597;48.328;7.932;2023-12-14T08:31:50;99371.25;;;7.53;100.00
32083;BME280;18597;48.328;7.932;2023-12-14T08:34:16;99383.19;;;7.47;100.00
32083;BME280;18597;48.328;7.932;2023-12-14T08:36:42;99397.81;;;7.41;100.00
32083;BME280;18597;48.328;7.932;2023-12-14T08:39:07;99400.81;;;7.37;100.00
32083;BME280;18597;48.328;7.932;2023-12-14T08:41:33;99402.88;;;7.44;100.00
32083;BME280;18597;48.328;7.932;2023-12-14T08:43:59;99410.84;;;7.44;100.00
32083;BME280;18597;48.328;7.932;2023-12-14T08:46:25;99421.88;;;7.51;100.00
32083;BME280;18597;48.328;7.932;2023-12-14T08:48:50;99414.75;;;7.51;100.00
32083;BME280;18597;48.328;7.932;2023-12-14T08:51:17;99422.97;;;7.60;100.00
32083;BME280;18597;48.328;7.932;2023-12-14T08:53:44;99425.19;;;7.66;100.00
32083;BME280;18597;48.328;7.932;2023-12-14T08:56:10;99428.94;;;7.74;100.00
32083;BME280;18597;48.328;7.932;2023-12-14T08:58:36;99437.66;;;7.88;100.00
32083;BME280;18597;48.328;7.932;2023-12-14T09:01:01;99441.88;;;7.90;100.00
32083;BME280;18597;48.328;7.932;2023-12-14T09:03:27;99437.53;;;8.00;100.00
32083;BME280;18597;48.328;7.932;2023-12-14T09:05:53;99437.78;;;7.97;100.00
32083;BME280;18597;48.328;7.932;2023-12-14T09:08:19;99454.59;;;7.98;100.00
32083;BME280;18597;48.328;7.932;2023-12-14T09:10:44;99451.34;;;7.94;100.00
32083;BME280;18597;48.328;7.932;2023-12-14T09:13:10;99465.72;;;7.92;100.00
32083;BME280;18597;48.328;7.932;2023-12-14T09:15:36;99467.31;;;7.94;100.00
32083;BME280;18597;48.328;7.932;2023-12-14T09:18:02;99467.66;;;7.90;100.00
32083;BME280;18597;48.328;7.932;2023-12-14T09:20:28;99476.13;;;7.95;100.00
32083;BME280;18597;48.328;7.932;2023-12-14T09:22:54;99481.28;;;7.85;100.00
32083;BME280;18597;48.328;7.932;2023-12-14T09:25:20;99480.19;;;7.76;100.00
32083;BME280;18597;48.328;7.932;2023-12-14T09:27:46;99487.19;;;7.77;100.00
32083;BME280;18597;48.328;7.932;2023-12-14T09:30:12;99490.22;;;7.84;100.00
32083;BME280;18597;48.328;7.932;2023-12-14T09:32:38;99484.69;;;7.87;100.00
32083;BME280;18597;48.328;7.932;2023-12-14T09:35:06;99494.25;;;7.90;100.00
32083;BME280;18597;48.328;7.932;2023-12-14T09:37:32;99507.94;;;7.96;100.00
32083;BME280;18597;48.328;7.932;2023-12-14T09:39:58;99513.84;;;8.00;100.00
32083;BME280;18597;48.328;7.932;2023-12-14T09:42:24;99513.03;;;8.11;100.00
32083;BME280;18597;48.328;7.932;2023-12-14T09:44:52;99515.69;;;8.11;100.00
32083;BME280;18597;48.328;7.932;2023-12-14T09:47:18;99524.53;;;8.11;100.00
32083;BME280;18597;48.328;7.932;2023-12-14T09:49:45;99531.28;;;8.04;100.00
32083;BME280;18597;48.328;7.932;2023-12-14T09:52:13;99530.00;;;7.86;100.00
32083;BME280;18597;48.328;7.932;2023-12-14T09:54:39;99533.41;;;7.88;100.00
32083;BME280;18597;48.328;7.932;2023-12-14T09:57:06;99545.69;;;7.77;100.00
32083;BME280;18597;48.328;7.932;2023-12-14T09:59:32;99540.34;;;7.66;100.00
32083;BME280;18597;48.328;7.932;2023-12-14T10:02:13;99542.69;;;7.71;100.00
32083;BME280;18597;48.328;7.932;2023-12-14T10:04:40;99546.06;;;7.73;100.00
32083;BME280;18597;48.328;7.932;2023-12-14T10:07:05;99553.84;;;7.87;100.00
32083;BME280;18597;48.328;7.932;2023-12-14T10:09:34;99561.84;;;7.87;100.00
32083;BME280;18597;48.328;7.932;2023-12-14T10:12:05;99567.59;;;7.81;100.00
32083;BME280;18597;48.328;7.932;2023-12-14T10:14:32;99566.38;;;7.74;100.00
32083;BME280;18597;48.328;7.932;2023-12-14T10:16:59;99572.19;;;7.79;100.00
32083;BME280;18597;48.328;7.932;2023-12-14T10:19:36;99575.34;;;7.84;100.00
32083;BME280;18597;48.328;7.932;2023-12-14T10:22:02;99578.06;;;7.95;100.00
32083;BME280;18597;48.328;7.932;2023-12-14T10:24:28;99571.78;;;8.07;100.00
32083;BME280;18597;48.328;7.932;2023-12-14T10:26:53;99577.38;;;8.16;100.00
32083;BME280;18597;48.328;7.932;2023-12-14T10:29:20;99582.75;;;8.27;100.00
32083;BME280;18597;48.328;7.932;2023-12-14T10:31:48;99583.91;;;8.23;100.00
32083;BME280;18597;48.328;7.932;2023-12-14T10:34:13;99588.13;;;8.14;100.00
32083;BME280;18597;48.328;7.932;2023-12-14T10:36:40;99596.50;;;8.21;100.00
32083;BME280;18597;48.328;7.932;2023-12-14T10:39:11;99597.56;;;8.07;100.00
32083;BME280;18597;48.328;7.932;2023-12-14T10:41:39;99591.38;;;8.06;100.00
32083;BME280;18597;48.328;7.932;2023-12-14T10:44:06;99599.59;;;8.03;100.00
32083;BME280;18597;48.328;7.932;2023-12-14T10:46:33;99600.06;;;7.97;100.00
32083;BME280;18597;48.328;7.932;2023-12-14T10:49:01;99605.63;;;7.94;100.00
32083;BME280;18597;48.328;7.932;2023-12-14T10:51:27;99613.81;;;7.91;100.00
32083;BME280;18597;48.328;7.932;2023-12-14T10:53:54;99614.78;;;7.90;100.00
32083;BME280;18597;48.328;7.932;2023-12-14T10:56:20;99613.69;;;7.93;100.00
32083;BME280;18597;48.328;7.932;2023-12-14T10:58:51;99621.78;;;7.91;100.00
32083;BME280;18597;48.328;7.932;2023-12-14T11:01:20;99619.78;;;7.95;100.00
32083;BME280;18597;48.328;7.932;2023-12-14T11:03:47;99632.25;;;8.05;100.00
32083;BME280;18597;48.328;7.932;2023-12-14T11:06:36;99630.81;;;8.01;100.00
32083;BME280;18597;48.328;7.932;2023-12-14T11:09:08;99635.19;;;8.14;100.00
32083;BME280;18597;48.328;7.932;2023-12-14T11:11:56;99646.22;;;8.20;100.00
32083;BME280;18597;48.328;7.932;2023-12-14T11:14:24;99644.69;;;8.29;100.00
32083;BME280;18597;48.328;7.932;2023-12-14T11:16:56;99652.63;;;8.42;100.00
32083;BME280;18597;48.328;7.932;2023-12-14T11:19:25;99647.75;;;8.36;100.00
32083;BME280;18597;48.328;7.932;2023-12-14T11:22:17;99656.41;;;8.26;100.00
32083;BME280;18597;48.328;7.932;2023-12-14T11:24:54;99657.00;;;8.30;100.00
32083;BME280;18597;48.328;7.932;2023-12-14T11:27:29;99657.88;;;8.30;100.00
32083;BME280;18597;48.328;7.932;2023-12-14T11:29:56;99659.59;;;8.31;100.00
32083;BME280;18597;48.328;7.932;2023-12-14T11:32:24;99662.06;;;8.46;100.00
32083;BME280;18597;48.328;7.932;2023-12-14T11:34:50;99662.94;;;8.57;100.00
32083;BME280;18597;48.328;7.932;2023-12-14T11:37:16;99663.06;;;8.67;100.00
32083;BME280;18597;48.328;7.932;2023-12-14T11:39:42;99662.72;;;8.72;100.00
32083;BME280;18597;48.328;7.932;2023-12-14T11:42:09;99676.28;;;8.69;100.00
32083;BME280;18597;48.328;7.932;2023-12-14T11:44:38;99679.94;;;8.79;100.00
32083;BME280;18597;48.328;7.932;2023-12-14T11:47:06;99682.47;;;8.92;100.00
32083;BME280;18597;48.328;7.932;2023-12-14T11:49:32;99687.94;;;9.12;100.00
32083;BME280;18597;48.328;7.932;2023-12-14T11:52:01;99684.84;;;9.30;100.00
32083;BME280;18597;48.328;7.932;2023-12-14T11:54:27;99691.59;;;9.34;100.00
32083;BME280;18597;48.328;7.932;2023-12-14T11:56:53;99684.69;;;9.31;100.00
32083;BME280;18597;48.328;7.932;2023-12-14T11:59:19;99687.72;;;9.27;100.00
32083;BME280;18597;48.328;7.932;2023-12-14T12:02:01;99689.44;;;9.16;100.00
32083;BME280;18597;48.328;7.932;2023-12-14T12:04:28;99684.94;;;9.17;100.00
32083;BME280;18597;48.328;7.932;2023-12-14T12:07:09;99686.50;;;9.08;100.00
32083;BME280;18597;48.328;7.932;2023-12-14T12:09:37;99689.19;;;9.08;100.00
32083;BME280;18597;48.328;7.932;2023-12-14T12:12:09;99687.38;;;9.09;100.00
32083;BME280;18597;48.328;7.932;2023-12-14T12:14:36;99697.06;;;9.10;100.00
32083;BME280;18597;48.328;7.932;2023-12-14T12:17:04;99693.41;;;9.11;100.00
32083;BME280;18597;48.328;7.932;2023-12-14T12:19:36;99689.56;;;9.15;100.00
32083;BME280;18597;48.328;7.932;2023-12-14T12:22:03;99687.59;;;9.28;100.00
32083;BME280;18597;48.328;7.932;2023-12-14T12:24:29;99692.22;;;9.37;100.00
32083;BME280;18597;48.328;7.932;2023-12-14T12:26:55;99690.38;;;9.49;100.00
32083;BME280;18597;48.328;7.932;2023-12-14T12:29:22;99696.03;;;9.67;100.00
32083;BME280;18597;48.328;7.932;2023-12-14T12:31:48;99698.84;;;9.77;100.00
32083;BME280;18597;48.328;7.932;2023-12-14T12:34:14;99700.06;;;9.61;100.00
32083;BME280;18597;48.328;7.932;2023-12-14T12:36:41;99700.91;;;9.62;100.00
32083;BME280;18597;48.328;7.932;2023-12-14T12:39:07;99708.03;;;9.72;100.00
32083;BME280;18597;48.328;7.932;2023-12-14T12:41:34;99711.72;;;10.04;100.00
32083;BME280;18597;48.328;7.932;2023-12-14T12:44:04;99713.28;;;10.28;100.00
32083;BME280;18597;48.328;7.932;2023-12-14T12:46:34;99711.88;;;10.45;100.00
32083;BME280;18597;48.328;7.932;2023-12-14T12:49:02;99711.00;;;10.45;100.00
32083;BME280;18597;48.328;7.932;2023-12-14T12:51:28;99722.63;;;10.55;100.00
32083;BME280;18597;48.328;7.932;2023-12-14T12:53:55;99721.69;;;10.45;100.00
32083;BME280;18597;48.328;7.932;2023-12-14T12:56:23;99731.34;;;10.25;100.00